Time;durP1;ratioP1;P1;durP2;ratioP2;P2;SDS_P1;SDS_P2;PMS_P1;PMS_P2;Temp;Humidity;BMP_temperature;BMP_pressure;BME280_temperature;BME280_humidity;BME280_pressure;Samples;Min_cycle;Max_cycle;Signal;HPM_P1;HPM_P2
2021/11/02 00:00:28;;;;;;;4.17;1.53;;;;;;;8.54;79.69;99355.63;5070377;28;20299;-76
2021/11/02 00:02:56;;;;;;;3.90;1.40;;;;;;;8.51;79.19;99356.72;5064925;28;20225;-76
2021/11/02 00:05:22;;;;;;;4.73;1.97;;;;;;;8.50;79.24;99354.16;5069734;28;20207;-75
2021/11/02 00:07:49;;;;;;;4.90;1.60;;;;;;;8.49;79.37;99349.81;5071214;28;20262;-76
2021/11/02 00:10:16;;;;;;;3.00;1.30;;;;;;;8.46;79.69;99344.75;5056381;28;20240;-76
2021/11/02 00:12:42;;;;;;;3.73;1.70;;;;;;;8.43;79.11;99353.78;5055378;28;20316;-76
2021/11/02 00:15:10;;;;;;;3.63;2.07;;;;;;;8.41;79.17;99349.56;5073295;28;20329;-76
2021/11/02 00:17:38;;;;;;;3.53;1.63;;;;;;;8.39;79.81;99354.97;5061361;28;20802;-76
2021/11/02 00:20:11;;;;;;;3.40;1.40;;;;;;;8.36;79.74;99344.59;5066779;28;20229;-76
2021/11/02 00:22:39;;;;;;;2.10;1.10;;;;;;;8.35;80.39;99345.56;5058262;28;20204;-76
2021/11/02 00:25:08;;;;;;;1.80;1.10;;;;;;;8.34;79.71;99344.72;5066347;28;20275;-77
2021/11/02 00:27:37;;;;;;;3.57;1.60;;;;;;;8.32;80.35;99346.63;5053161;28;20336;-76
2021/11/02 00:30:06;;;;;;;3.13;1.60;;;;;;;8.30;80.16;99342.38;5058797;28;20288;-76
2021/11/02 00:32:33;;;;;;;3.70;1.73;;;;;;;8.29;79.77;99345.97;5062032;28;20209;-76
2021/11/02 00:34:59;;;;;;;3.97;1.77;;;;;;;8.26;80.49;99341.75;5066736;28;20239;-76
2021/11/02 00:37:27;;;;;;;2.67;1.87;;;;;;;8.25;80.53;99344.50;5063727;28;20257;-76
2021/11/02 00:39:54;;;;;;;1.87;1.50;;;;;;;8.23;80.34;99335.84;5061638;28;20467;-76
2021/11/02 00:42:21;;;;;;;3.67;1.40;;;;;;;8.21;80.87;99335.94;5068037;28;20686;-76
2021/11/02 00:44:55;;;;;;;5.13;2.10;;;;;;;8.20;80.06;99333.41;5060620;28;20205;-75
2021/11/02 00:47:24;;;;;;;4.30;1.80;;;;;;;8.17;80.56;99325.69;5052828;28;20243;-75
2021/11/02 00:49:51;;;;;;;2.53;1.67;;;;;;;8.15;81.25;99328.44;5059484;28;20208;-75
2021/11/02 00:52:18;;;;;;;2.00;1.57;;;;;;;8.15;81.05;99317.84;5061728;28;20810;-75
2021/11/02 00:54:46;;;;;;;4.70;1.70;;;;;;;8.12;80.37;99319.88;5068274;28;20672;-76
2021/11/02 00:57:13;;;;;;;3.73;1.73;;;;;;;8.11;80.60;99321.66;5067285;28;20799;-75
2021/11/02 00:59:40;;;;;;;4.63;1.77;;;;;;;8.09;80.93;99312.13;5055964;28;20295;-76
2021/11/02 01:02:08;;;;;;;4.13;1.87;;;;;;;8.08;81.28;99310.44;5070516;28;20208;-75
2021/11/02 01:04:35;;;;;;;4.23;1.90;;;;;;;8.04;81.11;99311.66;5056751;28;20201;-76
2021/11/02 01:07:02;;;;;;;2.70;1.57;;;;;;;8.02;81.02;99312.59;5053242;28;20718;-76
2021/11/02 01:09:29;;;;;;;4.67;2.07;;;;;;;8.00;80.57;99308.38;5060688;28;20292;-75
2021/11/02 01:11:57;;;;;;;2.90;1.70;;;;;;;7.96;80.63;99312.19;5065207;28;20587;-76
2021/11/02 01:14:23;;;;;;;3.53;1.83;;;;;;;7.92;81.23;99305.44;5071643;28;20331;-76
2021/11/02 01:16:50;;;;;;;2.03;1.70;;;;;;;7.90;81.24;99304.69;5069673;28;20291;-75
2021/11/02 01:19:16;;;;;;;3.23;1.83;;;;;;;7.88;81.70;99303.97;5060263;28;20300;-76
2021/11/02 01:21:43;;;;;;;2.93;1.93;;;;;;;7.86;81.74;99300.59;5058548;28;20663;-76
2021/11/02 01:24:10;;;;;;;3.83;1.70;;;;;;;7.83;80.95;99298.16;5059825;28;20210;-75
2021/11/02 01:26:36;;;;;;;6.20;1.70;;;;;;;7.81;81.19;99297.44;5067374;28;20211;-75
2021/11/02 01:29:04;;;;;;;5.17;1.90;;;;;;;7.79;81.63;99294.88;5075880;28;20197;-76
2021/11/02 01:31:31;;;;;;;2.10;1.30;;;;;;;7.77;81.44;99288.00;5079894;28;20291;-77
2021/11/02 01:33:58;;;;;;;2.93;1.27;;;;;;;7.78;81.38;99292.34;5071539;28;20295;-76
2021/11/02 01:36:25;;;;;;;3.10;1.00;;;;;;;7.76;81.49;99284.50;5070942;28;20228;-76
2021/11/02 01:38:51;;;;;;;2.53;1.40;;;;;;;7.76;81.78;99288.97;5071912;28;20242;-76
2021/11/02 01:41:22;;;;;;;3.27;1.60;;;;;;;7.75;81.85;99290.75;5068960;28;20661;-76
2021/11/02 01:43:48;;;;;;;2.10;1.43;;;;;;;7.74;82.42;99285.56;5071310;28;20245;-76
2021/11/02 01:46:24;;;;;;;3.43;1.30;;;;;;;7.74;81.73;99281.13;5069340;28;20211;-75
2021/11/02 01:48:51;;;;;;;2.00;1.30;;;;;;;7.73;82.07;99276.78;5072139;28;20777;-76
2021/11/02 01:51:18;;;;;;;5.80;1.43;;;;;;;7.73;81.67;99283.88;5071612;28;20258;-76
2021/11/02 01:53:45;;;;;;;3.57;1.33;;;;;;;7.75;82.15;99292.56;5069915;28;20201;-75
2021/11/02 01:56:13;;;;;;;4.40;1.50;;;;;;;7.74;81.65;99281.13;5065976;28;20225;-75
2021/11/02 01:58:39;;;;;;;2.53;1.30;;;;;;;7.74;82.18;99274.97;5062228;28;20310;-75
2021/11/02 02:01:11;;;;;;;3.17;1.40;;;;;;;7.75;81.66;99271.38;5070971;28;20601;-75
2021/11/02 02:03:51;;;;;;;2.37;1.40;;;;;;;7.74;82.00;99277.63;5061571;28;20311;-76
2021/11/02 02:06:26;;;;;;;4.10;1.40;;;;;;;7.74;82.51;99277.63;5071298;28;20205;-76
2021/11/02 02:09:03;;;;;;;5.27;1.37;;;;;;;7.74;82.44;99280.28;5064783;28;20753;-76
2021/11/02 02:11:40;;;;;;;3.40;1.30;;;;;;;7.74;82.37;99282.91;5068479;28;20673;-76
2021/11/02 02:14:16;;;;;;;2.07;1.50;;;;;;;7.74;82.62;99269.66;5071844;28;20303;-76
2021/11/02 02:16:47;;;;;;;2.90;1.20;;;;;;;7.74;82.34;99274.97;5055894;28;20238;-75
2021/11/02 02:19:43;;;;;;;3.23;1.20;;;;;;;7.74;81.87;99273.16;5065127;28;20209;-75
2021/11/02 02:22:24;;;;;;;3.60;1.50;;;;;;;7.73;82.64;99271.47;5067547;28;20355;-75
2021/11/02 02:25:07;;;;;;;4.47;1.50;;;;;;;7.73;82.59;99278.56;5070871;28;20213;-75
2021/11/02 02:27:43;;;;;;;3.53;1.33;;;;;;;7.73;81.88;99273.28;5051293;28;20478;-75
2021/11/02 02:30:14;;;;;;;2.70;1.00;;;;;;;7.71;82.44;99268.09;5066893;28;20207;-75
2021/11/02 02:32:45;;;;;;;4.20;1.50;;;;;;;7.73;82.05;99270.63;5070499;28;20235;-75
2021/11/02 02:35:14;;;;;;;2.70;1.40;;;;;;;7.72;81.78;99271.59;5068675;28;20315;-75
2021/11/02 02:37:45;;;;;;;4.50;1.60;;;;;;;7.71;82.07;99270.75;5064988;28;20784;-76
2021/11/02 02:40:12;;;;;;;3.30;1.53;;;;;;;7.71;82.05;99277.84;5070065;28;20207;-75
2021/11/02 02:42:41;;;;;;;2.67;1.47;;;;;;;7.70;82.54;99271.72;5069848;28;20299;-74
2021/11/02 02:45:13;;;;;;;3.23;1.70;;;;;;;7.70;82.03;99276.19;5072404;28;20200;-74
2021/11/02 02:47:44;;;;;;;6.93;1.93;;;;;;;7.70;82.08;99282.31;5064246;28;20621;-75
2021/11/02 02:50:11;;;;;;;3.30;2.00;;;;;;;7.68;82.49;99275.44;5072303;28;20255;-75
2021/11/02 02:52:40;;;;;;;4.23;2.43;;;;;;;7.65;81.47;99264.09;5066966;28;20808;-75
2021/11/02 02:55:09;;;;;;;4.57;1.80;;;;;;;7.63;81.77;99262.53;5069687;28;20757;-75
2021/11/02 02:57:37;;;;;;;6.10;2.10;;;;;;;7.59;82.33;99261.06;5068849;28;20601;-76
2021/11/02 03:00:04;;;;;;;5.90;1.97;;;;;;;7.58;81.75;99259.34;5064720;28;20204;-73
2021/11/02 03:02:33;;;;;;;4.70;2.07;;;;;;;7.55;81.54;99252.47;5069276;28;20680;-74
2021/11/02 03:05:07;;;;;;;2.63;1.50;;;;;;;7.51;82.40;99258.13;5070551;28;20200;-75
2021/11/02 03:07:34;;;;;;;5.77;2.20;;;;;;;7.48;82.02;99253.06;5061204;28;20323;-75
2021/11/02 03:10:01;;;;;;;5.17;2.23;;;;;;;7.43;81.34;99242.78;5065573;28;20197;-74
2021/11/02 03:12:30;;;;;;;5.17;2.20;;;;;;;7.41;82.37;99241.19;5069707;28;20208;-74
2021/11/02 03:15:11;;;;;;;3.37;1.80;;;;;;;7.37;82.25;99243.22;5060968;28;20701;-75
2021/11/02 03:17:46;;;;;;;3.40;1.77;;;;;;;7.33;82.16;99239.13;5058366;28;20232;-74
2021/11/02 03:43:27;;;;;;;5.37;1.70;;;;;;;7.31;82.23;99241.88;5052168;28;20221;-75
2021/11/02 03:48:43;;;;;;;3.47;1.33;;;;;;;7.19;82.55;99252.47;5072136;22;20247;-83
2021/11/02 03:51:31;;;;;;;7.00;2.40;;;;;;;7.15;82.66;99248.38;5037799;28;20210;-83
2021/11/02 03:56:56;;;;;;;3.63;1.90;;;;;;;7.00;81.58;99260.03;5022859;28;20230;-84
2021/11/02 05:08:51;;;;;;;6.53;3.93;;;;;;;6.37;84.55;99269.72;5032495;28;20221;-85
2021/11/02 05:47:27;;;;;;;7.80;4.77;;;;;;;6.44;85.30;99283.38;5033968;28;20205;-85
2021/11/02 05:50:02;;;;;;;9.07;5.20;;;;;;;6.42;85.76;99282.63;5040444;28;20237;-85
2021/11/02 05:52:48;;;;;;;7.87;6.03;;;;;;;6.39;85.39;99293.41;5023347;28;20221;-85
2021/11/02 05:55:44;;;;;;;9.67;5.93;;;;;;;6.36;85.88;99289.16;5043292;28;20664;-83
2021/11/02 05:58:14;;;;;;;8.50;5.80;;;;;;;6.35;86.34;99290.13;5040546;28;20227;-84
2021/11/02 06:00:52;;;;;;;8.97;6.27;;;;;;;6.33;86.13;99289.38;5036701;28;20233;-84
2021/11/02 06:03:28;;;;;;;8.63;5.60;;;;;;;6.34;86.22;99284.94;5037266;28;20190;-84
2021/11/02 06:06:03;;;;;;;10.10;5.57;;;;;;;6.34;86.11;99293.72;5038084;28;20229;-84
2021/11/02 06:08:59;;;;;;;7.00;5.37;;;;;;;6.34;86.24;99292.84;5031492;28;20209;-86
2021/11/02 06:28:27;;;;;;;7.23;5.70;;;;;;;6.39;86.13;99312.75;5038669;28;20221;-85
2021/11/02 06:31:00;;;;;;;12.73;6.90;;;;;;;6.42;86.35;99301.13;5036439;28;20238;-85
2021/11/02 06:33:40;;;;;;;8.90;5.60;;;;;;;6.46;86.33;99305.25;5039478;28;20209;-84
2021/11/02 06:42:04;;;;;;;8.80;5.90;;;;;;;6.65;87.17;99302.19;5036136;28;20214;-85
2021/11/02 07:15:58;;;;;;;8.57;5.17;;;;;;;7.11;87.66;99308.66;5026111;28;20229;-85
2021/11/02 07:18:31;;;;;;;10.30;5.47;;;;;;;7.16;87.75;99314.47;5046119;28;20202;-83
2021/11/02 07:21:03;;;;;;;8.77;5.40;;;;;;;7.21;88.10;99314.97;5034522;28;20234;-84
2021/11/02 07:23:38;;;;;;;8.23;5.07;;;;;;;7.26;87.67;99312.84;5034134;28;20210;-86
2021/11/02 08:47:22;;;;;;;8.63;3.90;;;;;;;8.84;84.40;99305.50;5038764;28;20205;-85
2021/11/02 08:49:49;;;;;;;5.83;4.17;;;;;;;8.86;83.33;99298.28;5039015;28;20257;-85
2021/11/02 08:52:19;;;;;;;5.83;3.43;;;;;;;8.91;83.01;99298.78;5039659;28;20272;-84
2021/11/02 08:54:49;;;;;;;4.20;3.00;;;;;;;8.96;83.22;99287.75;5035666;28;20290;-84
2021/11/02 08:57:17;;;;;;;6.57;3.80;;;;;;;8.99;82.96;99283.06;5047252;28;20232;-85
2021/11/02 08:59:45;;;;;;;4.57;2.80;;;;;;;9.03;82.90;99288.97;5042535;28;20233;-87
2021/11/02 09:02:13;;;;;;;6.33;3.37;;;;;;;9.04;82.78;99291.53;5038072;28;20210;-86
2021/11/02 09:04:44;;;;;;;8.03;3.90;;;;;;;9.10;82.16;99292.00;5038471;28;20213;-86
2021/11/02 09:07:15;;;;;;;4.87;3.20;;;;;;;9.14;82.39;99291.63;5038494;28;20600;-85
2021/11/02 09:09:47;;;;;;;4.93;3.07;;;;;;;9.19;82.51;99291.28;5036981;28;20237;-85
2021/11/02 09:12:15;;;;;;;5.00;2.87;;;;;;;9.22;82.28;99294.53;5051789;28;20213;-86
2021/11/02 09:14:44;;;;;;;4.93;3.00;;;;;;;9.27;82.10;99291.53;5043930;28;20205;-85
2021/11/02 09:17:13;;;;;;;4.63;3.57;;;;;;;9.31;81.84;99290.31;5057870;28;20225;-86
2021/11/02 09:19:40;;;;;;;3.87;2.90;;;;;;;9.35;81.34;99289.09;5041116;28;20230;-86
2021/11/02 09:22:10;;;;;;;6.40;3.33;;;;;;;9.41;81.31;99283.28;5037335;28;20209;-86
2021/11/02 09:24:42;;;;;;;4.97;3.43;;;;;;;9.49;80.92;99286.19;5051678;28;20205;-86
2021/11/02 09:27:15;;;;;;;5.83;3.07;;;;;;;9.54;80.91;99288.47;5022310;28;20255;-85
2021/11/02 09:29:42;;;;;;;5.67;2.47;;;;;;;9.61;81.03;99279.88;5036982;28;20225;-85
2021/11/02 09:32:10;;;;;;;4.27;2.63;;;;;;;9.66;80.44;99282.16;5041089;28;20206;-84
2021/11/02 09:34:37;;;;;;;5.70;2.60;;;;;;;9.71;79.71;99283.47;5057912;28;20292;-85
2021/11/02 09:37:08;;;;;;;4.43;2.33;;;;;;;9.76;79.64;99277.78;5057551;28;20225;-84
2021/11/02 09:39:41;;;;;;;4.00;3.13;;;;;;;9.80;79.48;99281.03;5057331;28;20234;-85
2021/11/02 09:42:41;;;;;;;6.90;3.17;;;;;;;9.84;79.02;99285.16;5050243;28;20206;-84
2021/11/02 09:45:55;;;;;;;4.27;2.67;;;;;;;9.90;79.04;99279.28;5045247;28;20226;-84
2021/11/02 09:48:49;;;;;;;4.30;2.47;;;;;;;9.94;78.43;99286.06;5056548;28;20214;-86
2021/11/02 09:51:53;;;;;;;5.27;2.70;;;;;;;10.02;78.25;99280.97;5012094;28;20620;-86
2021/11/02 09:54:44;;;;;;;3.17;2.10;;;;;;;10.04;77.43;99286.97;5035882;28;20190;-87
2021/11/02 09:57:29;;;;;;;5.97;2.50;;;;;;;10.09;77.08;99284.78;5036191;28;20272;-84
2021/11/02 10:00:05;;;;;;;3.53;2.13;;;;;;;10.13;77.20;99288.88;5041546;28;20229;-84
2021/11/02 10:03:07;;;;;;;5.23;2.70;;;;;;;10.17;76.68;99286.81;5044227;28;20186;-85
2021/11/02 10:05:48;;;;;;;4.63;2.43;;;;;;;10.20;76.56;99287.44;5037891;28;20637;-85
2021/11/02 10:08:33;;;;;;;3.83;2.20;;;;;;;10.26;76.15;99288.75;5056000;28;20602;-86
2021/11/02 10:11:03;;;;;;;4.63;2.70;;;;;;;10.28;76.06;99286.78;5046573;28;20562;-86
2021/11/02 10:13:49;;;;;;;4.33;2.20;;;;;;;10.31;75.55;99279.41;5037555;28;20198;-86
2021/11/02 10:16:31;;;;;;;4.10;1.80;;;;;;;10.33;75.20;99277.47;5036861;28;20207;-86
2021/11/02 10:19:22;;;;;;;4.40;2.23;;;;;;;10.40;75.10;99275.09;5014316;28;20231;-86
2021/11/02 10:22:11;;;;;;;3.57;1.73;;;;;;;10.46;74.56;99271.94;5018109;28;20290;-85
2021/11/02 10:25:10;;;;;;;2.57;1.83;;;;;;;10.50;74.43;99267.22;5036794;28;20648;-86
2021/11/02 10:28:16;;;;;;;7.47;2.53;;;;;;;10.54;74.26;99268.63;5017573;28;20693;-86
2021/11/02 10:31:11;;;;;;;4.90;2.00;;;;;;;10.58;73.65;99267.38;5047768;28;20292;-86
2021/11/02 10:33:43;;;;;;;5.17;1.90;;;;;;;10.62;73.18;99266.16;5043407;28;20238;-85
2021/11/02 10:36:21;;;;;;;3.83;2.10;;;;;;;10.64;73.05;99272.19;5036773;28;20202;-84
2021/11/02 10:39:05;;;;;;;3.23;2.17;;;;;;;10.66;72.79;99263.09;5036584;28;20572;-85
2021/11/02 10:41:39;;;;;;;13.70;2.77;;;;;;;10.67;72.69;99267.47;5036203;28;20249;-86
2021/11/02 10:44:18;;;;;;;4.07;2.07;;;;;;;10.71;72.61;99255.56;5036395;28;20729;-84
2021/11/02 10:47:04;;;;;;;2.60;1.80;;;;;;;10.76;72.58;99258.66;5027849;28;20206;-84
2021/11/02 10:49:48;;;;;;;2.63;1.50;;;;;;;10.80;72.25;99253.91;5038743;28;20253;-85
2021/11/02 10:52:24;;;;;;;5.10;2.20;;;;;;;10.83;71.93;99264.31;5048388;28;20205;-85
2021/11/02 10:54:59;;;;;;;5.53;2.03;;;;;;;10.86;71.47;99258.72;5053114;28;20204;-84
2021/11/02 10:57:36;;;;;;;1.93;1.67;;;;;;;10.85;71.12;99257.03;5038343;28;20218;-85
2021/11/02 11:00:07;;;;;;;5.53;1.60;;;;;;;10.86;71.09;99264.06;5024036;28;20253;-84
2021/11/02 11:02:34;;;;;;;3.37;2.10;;;;;;;10.92;71.18;99266.19;5050086;28;20205;-84
2021/11/02 11:05:02;;;;;;;2.27;1.57;;;;;;;10.98;71.10;99262.97;5055810;28;20552;-83
2021/11/02 11:07:37;;;;;;;2.50;1.47;;;;;;;11.05;70.53;99260.63;5055227;28;20210;-83
2021/11/02 11:10:05;;;;;;;2.30;1.90;;;;;;;11.09;70.23;99259.41;5024401;28;20225;-84
2021/11/02 11:12:34;;;;;;;5.30;1.73;;;;;;;11.14;70.02;99267.81;5036851;28;20210;-83
2021/11/02 11:15:04;;;;;;;3.57;2.00;;;;;;;11.13;69.83;99258.97;5023184;28;20209;-83
2021/11/02 11:17:32;;;;;;;3.40;2.00;;;;;;;11.14;69.66;99271.31;5036545;28;20238;-84
2021/11/02 11:20:09;;;;;;;2.33;1.90;;;;;;;11.18;69.91;99261.25;5037736;28;20230;-82
2021/11/02 11:22:40;;;;;;;3.27;1.77;;;;;;;11.24;69.87;99265.19;5032576;28;20203;-82
2021/11/02 11:25:13;;;;;;;3.03;1.60;;;;;;;11.27;69.72;99264.94;5055131;28;20212;-82
2021/11/02 11:27:46;;;;;;;2.97;1.97;;;;;;;11.32;69.90;99271.53;5037761;28;20289;-82
2021/11/02 11:30:13;;;;;;;3.43;2.17;;;;;;;11.36;69.63;99266.78;5037575;28;20309;-83
2021/11/02 11:32:41;;;;;;;5.10;2.40;;;;;;;11.39;69.27;99262.03;5017021;28;20218;-82
2021/11/02 11:35:09;;;;;;;4.43;1.73;;;;;;;11.40;69.07;99263.72;5028960;28;20659;-81
2021/11/02 11:37:40;;;;;;;2.80;1.90;;;;;;;11.44;68.93;99261.63;5036796;28;20226;-82
2021/11/02 11:40:09;;;;;;;3.67;1.60;;;;;;;11.45;68.95;99257.97;5046328;28;20228;-82
2021/11/02 11:42:37;;;;;;;2.43;2.00;;;;;;;11.46;68.94;99263.13;5039701;28;20298;-82
2021/11/02 11:45:08;;;;;;;3.67;1.83;;;;;;;11.47;68.88;99261.31;5036822;28;20672;-82
2021/11/02 11:47:37;;;;;;;4.67;1.60;;;;;;;11.50;68.66;99258.38;5036255;28;20669;-82
2021/11/02 11:50:18;;;;;;;3.17;1.70;;;;;;;11.53;68.64;99257.28;5037856;28;20673;-82
2021/11/02 11:52:48;;;;;;;2.47;1.93;;;;;;;11.55;68.60;99250.81;5040279;28;20194;-84
2021/11/02 11:55:21;;;;;;;3.53;1.67;;;;;;;11.57;68.67;99256.88;5040409;28;20210;-84
2021/11/02 11:58:02;;;;;;;4.33;2.17;;;;;;;11.62;68.60;99249.31;5040390;28;20570;-84
2021/11/02 12:00:29;;;;;;;2.93;1.60;;;;;;;11.63;68.35;99245.66;5020235;28;20365;-84
2021/11/02 12:03:01;;;;;;;2.73;1.70;;;;;;;11.64;67.87;99241.19;5036157;28;20219;-82
2021/11/02 12:05:30;;;;;;;2.97;1.60;;;;;;;11.63;67.21;99247.50;5051805;28;20285;-83
2021/11/02 12:08:07;;;;;;;2.43;2.00;;;;;;;11.60;67.82;99247.75;5042818;28;20226;-84
2021/11/02 12:10:34;;;;;;;4.37;2.20;;;;;;;11.58;67.54;99250.56;5040222;28;20228;-84
2021/11/02 12:13:05;;;;;;;3.53;1.90;;;;;;;11.59;67.52;99246.06;5040589;28;20562;-84
2021/11/02 12:15:40;;;;;;;2.90;1.93;;;;;;;11.58;68.03;99247.06;5040229;28;20292;-82
2021/11/02 12:18:08;;;;;;;1.93;1.70;;;;;;;11.58;67.85;99242.56;5041947;28;20271;-84
2021/11/02 12:20:37;;;;;;;3.30;1.80;;;;;;;11.56;67.87;99244.53;5050439;28;20230;-83
2021/11/02 12:23:18;;;;;;;5.90;2.03;;;;;;;11.53;67.99;99244.78;5040596;28;20224;-84
2021/11/02 12:25:52;;;;;;;5.80;1.97;;;;;;;11.53;68.17;99246.63;5050003;28;20230;-83
2021/11/02 12:28:31;;;;;;;4.20;2.40;;;;;;;11.55;68.23;99250.00;5028121;28;20668;-84
2021/11/02 12:31:03;;;;;;;2.17;1.87;;;;;;;11.52;68.40;99244.91;5037062;28;20223;-84
2021/11/02 12:33:30;;;;;;;3.03;1.87;;;;;;;11.49;68.34;99249.53;5058119;28;20208;-84
2021/11/02 12:35:58;;;;;;;2.20;1.80;;;;;;;11.48;68.58;99244.34;5052062;28;20209;-83
2021/11/02 12:38:34;;;;;;;2.37;2.17;;;;;;;11.46;68.69;99246.34;5052425;28;20234;-83
2021/11/02 12:41:01;;;;;;;2.37;1.50;;;;;;;11.47;68.62;99240.00;5051702;28;20235;-83
2021/11/02 12:43:32;;;;;;;4.20;2.00;;;;;;;11.44;68.77;99232.28;5045494;28;20666;-84
2021/11/02 12:46:01;;;;;;;2.10;1.50;;;;;;;11.45;68.64;99234.81;5036782;28;20202;-84
2021/11/02 12:48:29;;;;;;;2.30;1.50;;;;;;;11.45;68.58;99229.50;5039364;28;20646;-84
2021/11/02 12:50:58;;;;;;;3.77;1.50;;;;;;;11.46;68.66;99233.81;5030506;28;20235;-84
2021/11/02 12:53:26;;;;;;;1.70;1.27;;;;;;;11.49;68.91;99238.03;5043727;28;20239;-84
2021/11/02 12:55:56;;;;;;;1.53;1.33;;;;;;;11.50;68.78;99237.06;5053297;28;20268;-84
2021/11/02 12:58:24;;;;;;;2.27;1.47;;;;;;;11.49;68.59;99228.22;5040750;28;20237;-84
2021/11/02 13:01:01;;;;;;;1.57;1.33;;;;;;;11.48;68.47;99228.34;5039871;28;20232;-84
2021/11/02 13:03:42;;;;;;;1.70;1.37;;;;;;;11.47;68.37;99232.84;5038739;28;20211;-84
2021/11/02 13:06:14;;;;;;;2.87;1.57;;;;;;;11.50;68.21;99237.06;5028163;28;20282;-85
2021/11/02 13:08:50;;;;;;;1.43;1.20;;;;;;;11.54;68.37;99229.63;5033374;28;20204;-86
2021/11/02 13:11:21;;;;;;;1.60;1.23;;;;;;;11.55;68.05;99229.50;5035027;28;20201;-85
2021/11/02 13:14:00;;;;;;;1.87;1.40;;;;;;;11.59;68.19;99228.25;5037060;28;20205;-85
2021/11/02 13:16:28;;;;;;;1.23;0.90;;;;;;;11.61;67.84;99223.63;5030594;28;20231;-85
2021/11/02 13:18:55;;;;;;;2.63;1.43;;;;;;;11.62;67.59;99225.31;5032602;28;20228;-85
2021/11/02 13:21:29;;;;;;;3.10;1.40;;;;;;;11.65;67.54;99226.84;5032746;28;20205;-85
2021/11/02 13:24:04;;;;;;;1.90;1.30;;;;;;;11.67;67.47;99231.06;5036065;28;20217;-84
2021/11/02 13:26:34;;;;;;;3.07;1.07;;;;;;;11.69;67.66;99229.09;5033331;28;20363;-86
2021/11/02 13:29:11;;;;;;;2.07;1.00;;;;;;;11.71;67.12;99232.47;5033762;28;20586;-84
2021/11/02 13:31:38;;;;;;;1.70;1.20;;;;;;;11.74;66.98;99237.53;5032201;28;20293;-85
2021/11/02 13:34:07;;;;;;;2.43;1.37;;;;;;;11.75;66.96;99230.38;5041328;28;20217;-86
2021/11/02 13:36:34;;;;;;;1.40;1.30;;;;;;;11.77;66.82;99234.63;5036218;28;20215;-83
2021/11/02 13:39:08;;;;;;;1.40;1.10;;;;;;;11.81;67.12;99241.38;5036019;28;20222;-82
2021/11/02 13:41:50;;;;;;;;;;;;;;;;;;;;;
2021/11/02 13:44:22;;;;;;;2.13;1.20;;;;;;;11.86;66.47;99237.41;5031951;28;20281;-82
2021/11/02 13:46:55;;;;;;;2.87;1.23;;;;;;;11.87;66.42;99223.94;5030675;28;20208;-80
2021/11/02 13:49:22;;;;;;;4.17;1.20;;;;;;;11.89;66.36;99237.16;5036406;28;20261;-81
2021/11/02 13:51:54;;;;;;;1.30;1.20;;;;;;;11.92;66.64;99231.53;5039571;28;20213;-81
2021/11/02 13:54:23;;;;;;;1.77;1.33;;;;;;;11.90;66.23;99237.00;5038334;28;20224;-83
2021/11/02 13:56:54;;;;;;;2.03;1.30;;;;;;;11.91;66.02;99229.84;5036292;28;20259;-82
2021/11/02 14:02:04;;;;;;;3.50;1.50;;;;;;;11.84;65.87;99234.88;5041175;28;20228;-82
2021/11/02 14:04:39;;;;;;;3.10;1.60;;;;;;;11.83;66.22;99233.19;5038695;28;20296;-82
2021/11/02 14:07:09;;;;;;;2.87;1.43;;;;;;;11.83;65.77;99227.88;5041578;28;20203;-82
2021/11/02 14:09:42;;;;;;;2.03;1.70;;;;;;;11.85;65.86;99231.25;5035771;28;20230;-82
2021/11/02 14:12:25;;;;;;;1.73;1.47;;;;;;;11.87;65.75;99233.78;5038042;28;20194;-83
2021/11/02 14:14:54;;;;;;;2.57;1.77;;;;;;;11.90;65.56;99244.16;5040792;28;20212;-82
2021/11/02 14:17:23;;;;;;;1.30;1.20;;;;;;;11.94;65.50;99237.56;5043905;28;20210;-82
2021/11/02 14:20:19;;;;;;;3.37;1.57;;;;;;;11.97;65.44;99238.16;5032744;28;20242;-83
2021/11/02 14:22:47;;;;;;;3.10;1.40;;;;;;;11.99;65.50;99236.19;5034793;28;20209;-82
2021/11/02 14:25:15;;;;;;;2.27;1.30;;;;;;;12.02;65.33;99237.69;5033742;28;20210;-81
2021/11/02 14:27:49;;;;;;;1.67;1.40;;;;;;;12.04;65.37;99235.75;5033031;28;20208;-81
2021/11/02 14:30:36;;;;;;;1.67;1.57;;;;;;;12.08;65.25;99247.81;5041126;28;20240;-82
2021/11/02 14:33:05;;;;;;;3.97;1.63;;;;;;;12.11;65.17;99236.88;5037249;28;20906;-82
2021/11/02 14:35:38;;;;;;;1.97;1.37;;;;;;;12.13;65.09;99241.09;5032751;28;20245;-81
2021/11/02 14:38:05;;;;;;;1.97;1.50;;;;;;;12.16;65.04;99239.97;5030239;28;20217;-81
2021/11/02 14:40:33;;;;;;;1.73;1.33;;;;;;;12.16;64.71;99238.13;5043775;28;20917;-82
2021/11/02 14:43:22;;;;;;;2.27;1.40;;;;;;;12.14;64.52;99234.78;5034017;28;20206;-82
2021/11/02 14:45:50;;;;;;;1.33;1.23;;;;;;;12.12;64.25;99228.72;5035628;28;20230;-82
2021/11/02 14:48:34;;;;;;;1.83;1.40;;;;;;;12.10;64.30;99235.19;5038217;28;20293;-81
2021/11/02 14:51:02;;;;;;;2.83;1.57;;;;;;;12.05;64.13;99237.44;5034299;28;21111;-82
2021/11/02 14:53:31;;;;;;;2.63;1.70;;;;;;;12.03;64.35;99242.91;5039992;28;20572;-82
2021/11/02 14:56:02;;;;;;;4.13;2.57;;;;;;;12.00;64.31;99243.19;5042713;28;20197;-82
2021/11/02 14:58:50;;;;;;;6.03;3.20;;;;;;;11.98;64.44;99236.31;5043460;28;20340;-82
2021/11/02 15:01:29;;;;;;;3.17;1.73;;;;;;;11.95;64.63;99239.25;5031169;28;20887;-82
2021/11/02 15:04:01;;;;;;;2.77;1.83;;;;;;;11.94;64.61;99242.91;5028468;28;20222;-82
2021/11/02 15:06:33;;;;;;;1.87;1.33;;;;;;;11.91;64.84;99244.03;5037761;28;20317;-83
2021/11/02 15:09:01;;;;;;;1.63;1.53;;;;;;;11.93;64.89;99246.56;5031696;28;20218;-83
2021/11/02 15:11:29;;;;;;;2.30;1.77;;;;;;;11.92;64.67;99248.38;5036309;28;20327;-83
2021/11/02 15:14:05;;;;;;;2.93;1.60;;;;;;;11.91;64.84;99252.03;5030962;28;20221;-83
2021/11/02 15:16:32;;;;;;;2.10;1.30;;;;;;;11.89;65.00;99243.31;5036460;28;20224;-83
2021/11/02 15:19:07;;;;;;;1.70;1.57;;;;;;;11.87;65.00;99249.78;5037835;28;20232;-83
2021/11/02 15:21:36;;;;;;;2.50;1.60;;;;;;;11.85;65.18;99246.41;5035739;28;20201;-82
2021/11/02 15:24:07;;;;;;;2.73;1.40;;;;;;;11.81;65.26;99257.38;5036891;28;20214;-85
2021/11/02 15:26:46;;;;;;;1.30;1.20;;;;;;;11.78;65.27;99252.31;5037957;28;20206;-84
2021/11/02 15:29:15;;;;;;;1.73;1.40;;;;;;;11.76;65.32;99259.59;5036149;28;20309;-82
2021/11/02 15:31:53;;;;;;;2.53;1.90;;;;;;;11.71;65.22;99250.28;5032504;28;20202;-83
2021/11/02 15:34:19;;;;;;;2.33;1.53;;;;;;;11.67;65.30;99262.22;5027771;28;20273;-83
2021/11/02 15:36:47;;;;;;;2.63;1.47;;;;;;;11.64;65.40;99244.69;5033316;28;20214;-83
2021/11/02 15:39:14;;;;;;;4.13;1.90;;;;;;;11.59;65.49;99246.91;5033336;28;20579;-82
2021/11/02 15:41:41;;;;;;;2.83;1.70;;;;;;;11.52;65.48;99253.75;5039876;28;20210;-82
2021/11/02 15:44:09;;;;;;;2.43;1.83;;;;;;;11.43;65.11;99250.13;5030477;28;20260;-82
2021/11/02 15:46:39;;;;;;;2.67;1.87;;;;;;;11.37;65.36;99252.47;5041299;28;20206;-82
2021/11/02 15:49:14;;;;;;;3.77;1.60;;;;;;;11.30;65.47;99253.97;5037210;28;20232;-81
2021/11/02 15:51:52;;;;;;;1.70;1.50;;;;;;;11.16;65.15;99246.38;5038015;28;20243;-82
2021/11/02 15:54:23;;;;;;;2.93;1.40;;;;;;;10.99;65.56;99248.69;5032027;28;20258;-82
2021/11/02 15:56:50;;;;;;;3.70;1.43;;;;;;;10.88;65.94;99251.44;5035872;28;20208;-82
2021/11/02 15:59:24;;;;;;;2.97;1.37;;;;;;;10.81;66.26;99260.09;5031930;28;20242;-81
2021/11/02 16:01:56;;;;;;;3.43;2.07;;;;;;;10.72;66.43;99251.94;5032620;28;20210;-81
2021/11/02 16:07:11;;;;;;;4.23;2.90;;;;;;;10.60;67.05;99260.97;5034851;28;20201;-84
2021/11/02 16:09:56;;;;;;;3.07;2.60;;;;;;;10.55;67.27;99265.84;5037437;28;20226;-84
2021/11/02 16:12:26;;;;;;;2.20;2.00;;;;;;;10.47;67.38;99262.97;5031519;28;20294;-84
2021/11/02 16:14:56;;;;;;;3.30;2.20;;;;;;;10.39;67.41;99260.97;5037582;28;20276;-84
2021/11/02 16:17:36;;;;;;;3.73;2.47;;;;;;;10.31;67.68;99263.44;5032803;28;20207;-84
2021/11/02 16:20:04;;;;;;;4.00;1.40;;;;;;;10.24;67.77;99253.44;5025578;28;20263;-84
2021/11/02 16:22:31;;;;;;;2.37;1.60;;;;;;;10.16;67.61;99261.19;5032815;28;20285;-85
2021/11/02 16:25:03;;;;;;;1.67;1.27;;;;;;;10.05;67.48;99256.75;5036713;28;20212;-83
2021/11/02 16:27:30;;;;;;;2.13;1.23;;;;;;;9.98;68.04;99258.25;5035437;28;20216;-83
2021/11/02 16:29:56;;;;;;;1.50;1.30;;;;;;;9.92;68.34;99256.94;5036570;28;20949;-83
2021/11/02 16:32:28;;;;;;;3.20;2.03;;;;;;;9.88;68.27;99257.31;5041842;28;20254;-83
2021/11/02 16:34:57;;;;;;;2.37;1.67;;;;;;;9.83;68.71;99251.53;5044681;28;20201;-82
2021/11/02 16:37:34;;;;;;;1.97;1.73;;;;;;;9.80;69.35;99262.44;5039998;28;20270;-82
2021/11/02 16:40:16;;;;;;;3.10;2.03;;;;;;;9.78;69.51;99261.69;5041478;28;20221;-82